sensor_id;sensor_type;location;lat;lon;timestamp;P1;durP1;ratioP1;P2;durP2;ratioP2
67819;SDS011;54618;52.018;5.576;2023-04-24T00:00:55;4.60;;;1.30;;
67819;SDS011;54618;52.018;5.576;2023-04-24T00:03:22;3.30;;;0.95;;
67819;SDS011;54618;52.018;5.576;2023-04-24T00:05:48;3.67;;;0.98;;
67819;SDS011;54618;52.018;5.576;2023-04-24T00:08:14;3.83;;;1.30;;
67819;SDS011;54618;52.018;5.576;2023-04-24T00:10:39;3.22;;;1.20;;
67819;SDS011;54618;52.018;5.576;2023-04-24T00:13:05;3.20;;;1.38;;
67819;SDS011;54618;52.018;5.576;2023-04-24T00:15:31;3.22;;;1.15;;
67819;SDS011;54618;52.018;5.576;2023-04-24T00:17:57;2.17;;;0.75;;
67819;SDS011;54618;52.018;5.576;2023-04-24T00:20:22;3.42;;;1.02;;
67819;SDS011;54618;52.018;5.576;2023-04-24T00:22:48;3.17;;;0.98;;
67819;SDS011;54618;52.018;5.576;2023-04-24T00:25:13;3.65;;;1.25;;
67819;SDS011;54618;52.018;5.576;2023-04-24T00:27:39;3.95;;;1.10;;
67819;SDS011;54618;52.018;5.576;2023-04-24T00:30:04;3.10;;;1.00;;
67819;SDS011;54618;52.018;5.576;2023-04-24T00:32:31;2.78;;;1.08;;
67819;SDS011;54618;52.018;5.576;2023-04-24T00:34:56;2.50;;;0.93;;
67819;SDS011;54618;52.018;5.576;2023-04-24T00:37:22;2.60;;;0.98;;
67819;SDS011;54618;52.018;5.576;2023-04-24T00:39:47;3.35;;;1.20;;
67819;SDS011;54618;52.018;5.576;2023-04-24T00:42:13;3.53;;;1.00;;
67819;SDS011;54618;52.018;5.576;2023-04-24T00:44:39;2.38;;;1.10;;
67819;SDS011;54618;52.018;5.576;2023-04-24T00:47:04;3.20;;;1.08;;
67819;SDS011;54618;52.018;5.576;2023-04-24T00:49:30;2.13;;;0.88;;
67819;SDS011;54618;52.018;5.576;2023-04-24T00:51:56;3.67;;;1.13;;
67819;SDS011;54618;52.018;5.576;2023-04-24T00:54:21;2.33;;;0.90;;
67819;SDS011;54618;52.018;5.576;2023-04-24T00:56:47;2.85;;;1.20;;
67819;SDS011;54618;52.018;5.576;2023-04-24T00:59:13;3.78;;;1.25;;
67819;SDS011;54618;52.018;5.576;2023-04-24T01:01:40;2.17;;;0.90;;
67819;SDS011;54618;52.018;5.576;2023-04-24T01:04:07;2.28;;;0.90;;
67819;SDS011;54618;52.018;5.576;2023-04-24T01:06:35;2.38;;;1.10;;
67819;SDS011;54618;52.018;5.576;2023-04-24T01:09:06;2.67;;;1.00;;
67819;SDS011;54618;52.018;5.576;2023-04-24T01:11:35;2.97;;;1.10;;
67819;SDS011;54618;52.018;5.576;2023-04-24T01:14:02;2.65;;;1.00;;
67819;SDS011;54618;52.018;5.576;2023-04-24T01:16:27;2.22;;;0.90;;
67819;SDS011;54618;52.018;5.576;2023-04-24T01:18:53;4.10;;;1.08;;
67819;SDS011;54618;52.018;5.576;2023-04-24T01:21:18;2.50;;;1.00;;
67819;SDS011;54618;52.018;5.576;2023-04-24T01:23:46;3.45;;;1.10;;
67819;SDS011;54618;52.018;5.576;2023-04-24T01:26:12;3.63;;;1.00;;
67819;SDS011;54618;52.018;5.576;2023-04-24T01:28:42;2.35;;;0.93;;
67819;SDS011;54618;52.018;5.576;2023-04-24T01:31:07;3.00;;;0.77;;
67819;SDS011;54618;52.018;5.576;2023-04-24T01:33:33;2.47;;;0.90;;
67819;SDS011;54618;52.018;5.576;2023-04-24T01:35:58;3.25;;;1.00;;
67819;SDS011;54618;52.018;5.576;2023-04-24T01:38:25;3.05;;;1.05;;
67819;SDS011;54618;52.018;5.576;2023-04-24T01:40:50;1.98;;;0.90;;
67819;SDS011;54618;52.018;5.576;2023-04-24T01:43:16;2.83;;;1.02;;
67819;SDS011;54618;52.018;5.576;2023-04-24T01:45:42;2.47;;;0.93;;
67819;SDS011;54618;52.018;5.576;2023-04-24T01:48:07;3.15;;;1.00;;
67819;SDS011;54618;52.018;5.576;2023-04-24T01:50:33;2.85;;;1.00;;
67819;SDS011;54618;52.018;5.576;2023-04-24T01:52:59;3.05;;;1.10;;
67819;SDS011;54618;52.018;5.576;2023-04-24T01:55:25;2.72;;;1.10;;
67819;SDS011;54618;52.018;5.576;2023-04-24T01:57:51;2.80;;;0.93;;
67819;SDS011;54618;52.018;5.576;2023-04-24T02:00:18;2.92;;;1.15;;
67819;SDS011;54618;52.018;5.576;2023-04-24T02:02:43;2.03;;;0.80;;
67819;SDS011;54618;52.018;5.576;2023-04-24T02:05:09;1.98;;;0.90;;
67819;SDS011;54618;52.018;5.576;2023-04-24T02:07:35;2.35;;;0.85;;
67819;SDS011;54618;52.018;5.576;2023-04-24T02:10:01;3.15;;;1.00;;
67819;SDS011;54618;52.018;5.576;2023-04-24T02:12:28;2.20;;;0.82;;
67819;SDS011;54618;52.018;5.576;2023-04-24T02:14:54;2.22;;;0.90;;
67819;SDS011;54618;52.018;5.576;2023-04-24T02:17:20;2.42;;;0.90;;
67819;SDS011;54618;52.018;5.576;2023-04-24T02:19:45;2.20;;;0.80;;
67819;SDS011;54618;52.018;5.576;2023-04-24T02:22:11;2.47;;;1.00;;
67819;SDS011;54618;52.018;5.576;2023-04-24T02:24:37;2.63;;;0.98;;
67819;SDS011;54618;52.018;5.576;2023-04-24T02:27:03;2.38;;;0.93;;
67819;SDS011;54618;52.018;5.576;2023-04-24T02:29:29;2.00;;;0.93;;
67819;SDS011;54618;52.018;5.576;2023-04-24T02:31:54;2.30;;;1.05;;
67819;SDS011;54618;52.018;5.576;2023-04-24T02:34:20;1.70;;;0.70;;
67819;SDS011;54618;52.018;5.576;2023-04-24T02:36:45;2.45;;;0.90;;
67819;SDS011;54618;52.018;5.576;2023-04-24T02:39:11;2.50;;;1.00;;
67819;SDS011;54618;52.018;5.576;2023-04-24T02:41:36;2.50;;;0.93;;
67819;SDS011;54618;52.018;5.576;2023-04-24T02:44:02;3.15;;;0.80;;
67819;SDS011;54618;52.018;5.576;2023-04-24T02:46:28;1.63;;;0.75;;
67819;SDS011;54618;52.018;5.576;2023-04-24T02:48:53;1.45;;;0.80;;
67819;SDS011;54618;52.018;5.576;2023-04-24T02:51:19;2.13;;;0.90;;
67819;SDS011;54618;52.018;5.576;2023-04-24T02:53:44;3.10;;;1.15;;
67819;SDS011;54618;52.018;5.576;2023-04-24T02:56:10;1.73;;;0.75;;
67819;SDS011;54618;52.018;5.576;2023-04-24T02:58:37;2.10;;;0.95;;
67819;SDS011;54618;52.018;5.576;2023-04-24T03:01:03;2.70;;;0.98;;
67819;SDS011;54618;52.018;5.576;2023-04-24T03:03:28;2.92;;;0.90;;
67819;SDS011;54618;52.018;5.576;2023-04-24T03:05:54;2.40;;;0.98;;
67819;SDS011;54618;52.018;5.576;2023-04-24T03:08:21;3.25;;;1.10;;
67819;SDS011;54618;52.018;5.576;2023-04-24T03:10:47;3.17;;;0.98;;
67819;SDS011;54618;52.018;5.576;2023-04-24T03:13:13;1.75;;;0.93;;
67819;SDS011;54618;52.018;5.576;2023-04-24T03:15:38;2.13;;;1.00;;
67819;SDS011;54618;52.018;5.576;2023-04-24T03:18:04;2.03;;;0.93;;
67819;SDS011;54618;52.018;5.576;2023-04-24T03:20:30;1.52;;;0.90;;
67819;SDS011;54618;52.018;5.576;2023-04-24T03:22:55;2.50;;;1.00;;
67819;SDS011;54618;52.018;5.576;2023-04-24T03:25:22;2.45;;;1.00;;
67819;SDS011;54618;52.018;5.576;2023-04-24T03:27:47;2.95;;;0.90;;
67819;SDS011;54618;52.018;5.576;2023-04-24T03:30:13;3.17;;;1.10;;
67819;SDS011;54618;52.018;5.576;2023-04-24T03:32:38;1.85;;;0.90;;
67819;SDS011;54618;52.018;5.576;2023-04-24T03:35:04;2.40;;;0.85;;
67819;SDS011;54618;52.018;5.576;2023-04-24T03:37:33;2.45;;;1.05;;
67819;SDS011;54618;52.018;5.576;2023-04-24T03:39:59;2.58;;;1.05;;
67819;SDS011;54618;52.018;5.576;2023-04-24T03:42:25;2.75;;;1.10;;
67819;SDS011;54618;52.018;5.576;2023-04-24T03:44:50;3.00;;;1.25;;
67819;SDS011;54618;52.018;5.576;2023-04-24T03:47:16;2.88;;;1.00;;
67819;SDS011;54618;52.018;5.576;2023-04-24T03:49:41;1.85;;;0.80;;
67819;SDS011;54618;52.018;5.576;2023-04-24T03:52:07;1.65;;;0.90;;
67819;SDS011;54618;52.018;5.576;2023-04-24T03:54:33;2.90;;;1.10;;
67819;SDS011;54618;52.018;5.576;2023-04-24T03:56:58;3.13;;;1.08;;
67819;SDS011;54618;52.018;5.576;2023-04-24T03:59:24;2.35;;;0.90;;
67819;SDS011;54618;52.018;5.576;2023-04-24T04:01:49;1.90;;;0.98;;
67819;SDS011;54618;52.018;5.576;2023-04-24T04:04:15;2.65;;;0.98;;
67819;SDS011;54618;52.018;5.576;2023-04-24T04:06:40;2.20;;;1.10;;
67819;SDS011;54618;52.018;5.576;2023-04-24T04:09:07;2.17;;;0.98;;
67819;SDS011;54618;52.018;5.576;2023-04-24T04:11:33;2.45;;;0.90;;
67819;SDS011;54618;52.018;5.576;2023-04-24T04:14:00;2.10;;;1.00;;
67819;SDS011;54618;52.018;5.576;2023-04-24T04:16:26;2.65;;;1.05;;
67819;SDS011;54618;52.018;5.576;2023-04-24T04:18:51;2.42;;;1.00;;
67819;SDS011;54618;52.018;5.576;2023-04-24T04:21:17;2.97;;;1.05;;
67819;SDS011;54618;52.018;5.576;2023-04-24T04:23:42;3.28;;;1.00;;
67819;SDS011;54618;52.018;5.576;2023-04-24T04:26:08;2.47;;;1.15;;
67819;SDS011;54618;52.018;5.576;2023-04-24T04:28:34;1.60;;;0.80;;
67819;SDS011;54618;52.018;5.576;2023-04-24T04:30:59;1.65;;;0.80;;
67819;SDS011;54618;52.018;5.576;2023-04-24T04:33:25;1.73;;;0.80;;
67819;SDS011;54618;52.018;5.576;2023-04-24T04:35:51;2.75;;;1.08;;
67819;SDS011;54618;52.018;5.576;2023-04-24T04:38:17;1.38;;;0.80;;
67819;SDS011;54618;52.018;5.576;2023-04-24T04:40:44;2.35;;;0.80;;
67819;SDS011;54618;52.018;5.576;2023-04-24T04:43:10;2.03;;;1.00;;
67819;SDS011;54618;52.018;5.576;2023-04-24T04:45:36;1.83;;;0.98;;
67819;SDS011;54618;52.018;5.576;2023-04-24T04:48:03;1.63;;;0.80;;
67819;SDS011;54618;52.018;5.576;2023-04-24T04:50:29;2.08;;;0.90;;
67819;SDS011;54618;52.018;5.576;2023-04-24T04:52:55;1.63;;;0.70;;
67819;SDS011;54618;52.018;5.576;2023-04-24T04:55:21;2.08;;;1.00;;
67819;SDS011;54618;52.018;5.576;2023-04-24T04:57:46;2.13;;;0.70;;
67819;SDS011;54618;52.018;5.576;2023-04-24T05:00:12;2.47;;;0.88;;
67819;SDS011;54618;52.018;5.576;2023-04-24T05:02:38;2.60;;;0.93;;
67819;SDS011;54618;52.018;5.576;2023-04-24T05:05:04;2.13;;;0.90;;
67819;SDS011;54618;52.018;5.576;2023-04-24T05:07:31;2.10;;;0.90;;
67819;SDS011;54618;52.018;5.576;2023-04-24T05:09:56;1.77;;;0.88;;
67819;SDS011;54618;52.018;5.576;2023-04-24T05:12:22;2.58;;;0.80;;
67819;SDS011;54618;52.018;5.576;2023-04-24T05:14:47;1.88;;;0.73;;
67819;SDS011;54618;52.018;5.576;2023-04-24T05:17:13;2.15;;;0.80;;
67819;SDS011;54618;52.018;5.576;2023-04-24T05:19:38;1.40;;;0.70;;
67819;SDS011;54618;52.018;5.576;2023-04-24T05:22:04;3.72;;;0.93;;
67819;SDS011;54618;52.018;5.576;2023-04-24T05:24:31;2.10;;;0.90;;
67819;SDS011;54618;52.018;5.576;2023-04-24T05:27:00;1.40;;;0.82;;
67819;SDS011;54618;52.018;5.576;2023-04-24T05:29:27;2.17;;;0.88;;
67819;SDS011;54618;52.018;5.576;2023-04-24T05:31:55;1.35;;;0.80;;
67819;SDS011;54618;52.018;5.576;2023-04-24T05:34:21;1.38;;;0.73;;
67819;SDS011;54618;52.018;5.576;2023-04-24T05:36:46;2.15;;;0.65;;
67819;SDS011;54618;52.018;5.576;2023-04-24T05:39:13;1.52;;;0.68;;
67819;SDS011;54618;52.018;5.576;2023-04-24T05:41:39;1.95;;;0.60;;
67819;SDS011;54618;52.018;5.576;2023-04-24T05:44:05;1.88;;;0.70;;
67819;SDS011;54618;52.018;5.576;2023-04-24T05:46:30;1.98;;;0.70;;
67819;SDS011;54618;52.018;5.576;2023-04-24T05:48:56;1.05;;;0.52;;
67819;SDS011;54618;52.018;5.576;2023-04-24T05:51:21;1.23;;;0.60;;
67819;SDS011;54618;52.018;5.576;2023-04-24T05:53:47;1.90;;;0.50;;
67819;SDS011;54618;52.018;5.576;2023-04-24T05:56:12;2.13;;;0.80;;
67819;SDS011;54618;52.018;5.576;2023-04-24T05:58:38;1.67;;;0.60;;
67819;SDS011;54618;52.018;5.576;2023-04-24T06:01:04;1.13;;;0.50;;
67819;SDS011;54618;52.018;5.576;2023-04-24T06:03:30;1.00;;;0.60;;
67819;SDS011;54618;52.018;5.576;2023-04-24T06:05:56;1.20;;;0.60;;
67819;SDS011;54618;52.018;5.576;2023-04-24T06:08:22;1.00;;;0.57;;
67819;SDS011;54618;52.018;5.576;2023-04-24T06:10:47;1.83;;;0.70;;
67819;SDS011;54618;52.018;5.576;2023-04-24T06:13:13;1.30;;;0.50;;
67819;SDS011;54618;52.018;5.576;2023-04-24T06:15:38;1.25;;;0.57;;
67819;SDS011;54618;52.018;5.576;2023-04-24T06:18:04;1.48;;;0.57;;
67819;SDS011;54618;52.018;5.576;2023-04-24T06:20:29;1.10;;;0.60;;
67819;SDS011;54618;52.018;5.576;2023-04-24T06:22:55;1.23;;;0.60;;
67819;SDS011;54618;52.018;5.576;2023-04-24T06:25:21;1.08;;;0.60;;
67819;SDS011;54618;52.018;5.576;2023-04-24T06:27:46;1.25;;;0.60;;
67819;SDS011;54618;52.018;5.576;2023-04-24T06:30:12;1.23;;;0.50;;
67819;SDS011;54618;52.018;5.576;2023-04-24T06:32:38;0.80;;;0.57;;
67819;SDS011;54618;52.018;5.576;2023-04-24T06:35:04;1.35;;;0.60;;
67819;SDS011;54618;52.018;5.576;2023-04-24T06:37:32;1.58;;;0.63;;
67819;SDS011;54618;52.018;5.576;2023-04-24T06:39:57;1.35;;;0.50;;
67819;SDS011;54618;52.018;5.576;2023-04-24T06:42:23;1.30;;;0.50;;
67819;SDS011;54618;52.018;5.576;2023-04-24T06:44:49;0.47;;;0.32;;
67819;SDS011;54618;52.018;5.576;2023-04-24T06:47:15;1.15;;;0.60;;
67819;SDS011;54618;52.018;5.576;2023-04-24T06:49:41;1.08;;;0.50;;
67819;SDS011;54618;52.018;5.576;2023-04-24T06:52:07;1.40;;;0.50;;
67819;SDS011;54618;52.018;5.576;2023-04-24T06:54:33;1.50;;;0.65;;
67819;SDS011;54618;52.018;5.576;2023-04-24T06:56:59;1.50;;;0.57;;
67819;SDS011;54618;52.018;5.576;2023-04-24T06:59:28;1.27;;;0.60;;
67819;SDS011;54618;52.018;5.576;2023-04-24T07:01:54;1.52;;;0.55;;
67819;SDS011;54618;52.018;5.576;2023-04-24T07:04:20;1.13;;;0.50;;
67819;SDS011;54618;52.018;5.576;2023-04-24T07:06:47;0.35;;;0.30;;
67819;SDS011;54618;52.018;5.576;2023-04-24T07:09:14;0.90;;;0.50;;
67819;SDS011;54618;52.018;5.576;2023-04-24T07:11:40;1.10;;;0.50;;
67819;SDS011;54618;52.018;5.576;2023-04-24T07:14:06;1.30;;;0.50;;
67819;SDS011;54618;52.018;5.576;2023-04-24T07:16:33;1.35;;;0.60;;
67819;SDS011;54618;52.018;5.576;2023-04-24T07:18:58;0.90;;;0.40;;
67819;SDS011;54618;52.018;5.576;2023-04-24T07:21:24;1.05;;;0.60;;
67819;SDS011;54618;52.018;5.576;2023-04-24T07:23:50;1.48;;;0.60;;
67819;SDS011;54618;52.018;5.576;2023-04-24T07:26:16;1.10;;;0.60;;
67819;SDS011;54618;52.018;5.576;2023-04-24T07:28:41;1.35;;;0.60;;
67819;SDS011;54618;52.018;5.576;2023-04-24T07:31:07;1.52;;;0.60;;
67819;SDS011;54618;52.018;5.576;2023-04-24T07:33:33;2.33;;;0.50;;
67819;SDS011;54618;52.018;5.576;2023-04-24T07:36:01;0.85;;;0.52;;
67819;SDS011;54618;52.018;5.576;2023-04-24T07:38:29;2.28;;;0.60;;
67819;SDS011;54618;52.018;5.576;2023-04-24T07:40:55;3.97;;;0.60;;
67819;SDS011;54618;52.018;5.576;2023-04-24T07:43:20;1.52;;;0.52;;
67819;SDS011;54618;52.018;5.576;2023-04-24T07:45:47;2.42;;;0.50;;
67819;SDS011;54618;52.018;5.576;2023-04-24T07:48:12;1.63;;;0.60;;
67819;SDS011;54618;52.018;5.576;2023-04-24T07:50:41;4.30;;;0.90;;
67819;SDS011;54618;52.018;5.576;2023-04-24T07:53:07;2.95;;;0.57;;
67819;SDS011;54618;52.018;5.576;2023-04-24T07:55:32;2.15;;;0.60;;
67819;SDS011;54618;52.018;5.576;2023-04-24T07:57:58;2.85;;;0.50;;
67819;SDS011;54618;52.018;5.576;2023-04-24T08:00:23;1.88;;;0.70;;
67819;SDS011;54618;52.018;5.576;2023-04-24T08:02:49;4.28;;;0.60;;
67819;SDS011;54618;52.018;5.576;2023-04-24T08:05:14;2.00;;;0.68;;
67819;SDS011;54618;52.018;5.576;2023-04-24T08:07:40;1.73;;;0.73;;
67819;SDS011;54618;52.018;5.576;2023-04-24T08:10:07;2.55;;;0.60;;
67819;SDS011;54618;52.018;5.576;2023-04-24T08:12:35;0.85;;;0.50;;
67819;SDS011;54618;52.018;5.576;2023-04-24T08:15:01;3.40;;;0.60;;
67819;SDS011;54618;52.018;5.576;2023-04-24T08:17:27;1.27;;;0.50;;
67819;SDS011;54618;52.018;5.576;2023-04-24T08:19:52;2.47;;;0.88;;
67819;SDS011;54618;52.018;5.576;2023-04-24T08:22:24;4.95;;;0.80;;
67819;SDS011;54618;52.018;5.576;2023-04-24T08:24:49;1.77;;;0.60;;
67819;SDS011;54618;52.018;5.576;2023-04-24T08:27:15;2.00;;;0.70;;
67819;SDS011;54618;52.018;5.576;2023-04-24T08:29:40;2.20;;;0.60;;
67819;SDS011;54618;52.018;5.576;2023-04-24T08:32:06;2.00;;;0.60;;
67819;SDS011;54618;52.018;5.576;2023-04-24T08:34:31;3.05;;;0.65;;
67819;SDS011;54618;52.018;5.576;2023-04-24T08:36:57;2.42;;;0.60;;
67819;SDS011;54618;52.018;5.576;2023-04-24T08:39:22;3.55;;;0.75;;
67819;SDS011;54618;52.018;5.576;2023-04-24T08:41:48;2.25;;;0.63;;
67819;SDS011;54618;52.018;5.576;2023-04-24T08:44:15;1.98;;;0.77;;
67819;SDS011;54618;52.018;5.576;2023-04-24T08:46:45;3.92;;;0.60;;
67819;SDS011;54618;52.018;5.576;2023-04-24T08:49:13;2.13;;;0.70;;
67819;SDS011;54618;52.018;5.576;2023-04-24T08:51:43;2.03;;;0.70;;
67819;SDS011;54618;52.018;5.576;2023-04-24T08:54:10;1.38;;;0.70;;
67819;SDS011;54618;52.018;5.576;2023-04-24T08:56:36;2.30;;;0.80;;
67819;SDS011;54618;52.018;5.576;2023-04-24T08:59:05;2.78;;;0.55;;
67819;SDS011;54618;52.018;5.576;2023-04-24T09:01:32;1.95;;;0.70;;
67819;SDS011;54618;52.018;5.576;2023-04-24T09:03:59;2.35;;;0.70;;
67819;SDS011;54618;52.018;5.576;2023-04-24T09:06:29;3.17;;;0.60;;
67819;SDS011;54618;52.018;5.576;2023-04-24T09:08:57;2.40;;;0.50;;
67819;SDS011;54618;52.018;5.576;2023-04-24T09:11:25;2.55;;;0.73;;
67819;SDS011;54618;52.018;5.576;2023-04-24T09:13:52;3.35;;;0.95;;
67819;SDS011;54618;52.018;5.576;2023-04-24T09:16:19;2.55;;;0.70;;
67819;SDS011;54618;52.018;5.576;2023-04-24T09:18:45;1.63;;;0.68;;
67819;SDS011;54618;52.018;5.576;2023-04-24T09:21:11;3.10;;;0.90;;
67819;SDS011;54618;52.018;5.576;2023-04-24T09:23:36;3.30;;;0.80;;
67819;SDS011;54618;52.018;5.576;2023-04-24T09:26:03;2.65;;;0.80;;
67819;SDS011;54618;52.018;5.576;2023-04-24T09:28:34;4.70;;;0.82;;
67819;SDS011;54618;52.018;5.576;2023-04-24T09:31:02;2.88;;;0.80;;
67819;SDS011;54618;52.018;5.576;2023-04-24T09:33:37;2.65;;;0.82;;
67819;SDS011;54618;52.018;5.576;2023-04-24T09:36:04;1.58;;;0.68;;
67819;SDS011;54618;52.018;5.576;2023-04-24T09:38:31;1.63;;;0.70;;
67819;SDS011;54618;52.018;5.576;2023-04-24T09:41:01;5.97;;;0.90;;
67819;SDS011;54618;52.018;5.576;2023-04-24T09:43:29;2.92;;;0.70;;
67819;SDS011;54618;52.018;5.576;2023-04-24T09:45:55;2.00;;;0.82;;
67819;SDS011;54618;52.018;5.576;2023-04-24T09:51:17;5.45;;;0.80;;
67819;SDS011;54618;52.018;5.576;2023-04-24T09:53:59;2.97;;;1.08;;
67819;SDS011;54618;52.018;5.576;2023-04-24T09:56:25;3.08;;;0.88;;
67819;SDS011;54618;52.018;5.576;2023-04-24T09:58:51;2.22;;;0.70;;
67819;SDS011;54618;52.018;5.576;2023-04-24T10:01:28;2.05;;;0.80;;
67819;SDS011;54618;52.018;5.576;2023-04-24T10:06:22;2.03;;;0.70;;
67819;SDS011;54618;52.018;5.576;2023-04-24T10:08:56;3.00;;;0.90;;
67819;SDS011;54618;52.018;5.576;2023-04-24T10:11:23;2.35;;;0.88;;
67819;SDS011;54618;52.018;5.576;2023-04-24T10:13:51;1.50;;;0.70;;
67819;SDS011;54618;52.018;5.576;2023-04-24T10:16:17;1.42;;;0.70;;
67819;SDS011;54618;52.018;5.576;2023-04-24T10:18:44;3.20;;;0.90;;
67819;SDS011;54618;52.018;5.576;2023-04-24T10:21:10;3.53;;;0.88;;
67819;SDS011;54618;52.018;5.576;2023-04-24T10:23:36;3.28;;;1.00;;
67819;SDS011;54618;52.018;5.576;2023-04-24T10:26:03;2.10;;;0.80;;
67819;SDS011;54618;52.018;5.576;2023-04-24T10:28:29;2.20;;;0.90;;
67819;SDS011;54618;52.018;5.576;2023-04-24T10:30:56;2.88;;;0.90;;
67819;SDS011;54618;52.018;5.576;2023-04-24T10:33:23;3.90;;;0.90;;
67819;SDS011;54618;52.018;5.576;2023-04-24T10:35:49;3.15;;;0.75;;
67819;SDS011;54618;52.018;5.576;2023-04-24T10:38:18;4.15;;;0.98;;
67819;SDS011;54618;52.018;5.576;2023-04-24T10:40:49;3.10;;;0.90;;
67819;SDS011;54618;52.018;5.576;2023-04-24T10:43:16;4.05;;;0.70;;
67819;SDS011;54618;52.018;5.576;2023-04-24T10:45:59;2.95;;;1.00;;
67819;SDS011;54618;52.018;5.576;2023-04-24T10:48:29;2.92;;;1.00;;
67819;SDS011;54618;52.018;5.576;2023-04-24T10:50:55;3.20;;;0.90;;
67819;SDS011;54618;52.018;5.576;2023-04-24T10:53:22;3.60;;;1.00;;
67819;SDS011;54618;52.018;5.576;2023-04-24T10:58:24;4.05;;;1.08;;
67819;SDS011;54618;52.018;5.576;2023-04-24T11:01:00;4.50;;;1.08;;
67819;SDS011;54618;52.018;5.576;2023-04-24T11:03:27;3.50;;;1.00;;
67819;SDS011;54618;52.018;5.576;2023-04-24T11:05:58;2.83;;;0.80;;
67819;SDS011;54618;52.018;5.576;2023-04-24T11:08:44;3.22;;;0.80;;
67819;SDS011;54618;52.018;5.576;2023-04-24T11:11:11;1.33;;;0.80;;
67819;SDS011;54618;52.018;5.576;2023-04-24T11:16:25;2.47;;;0.90;;
67819;SDS011;54618;52.018;5.576;2023-04-24T11:21:48;3.40;;;1.00;;
67819;SDS011;54618;52.018;5.576;2023-04-24T11:24:30;2.28;;;0.80;;
67819;SDS011;54618;52.018;5.576;2023-04-24T11:34:51;3.58;;;0.85;;
67819;SDS011;54618;52.018;5.576;2023-04-24T11:37:22;1.65;;;0.70;;
67819;SDS011;54618;52.018;5.576;2023-04-24T11:39:52;3.00;;;0.90;;
67819;SDS011;54618;52.018;5.576;2023-04-24T11:42:19;2.45;;;0.80;;
67819;SDS011;54618;52.018;5.576;2023-04-24T11:44:46;2.10;;;0.70;;
67819;SDS011;54618;52.018;5.576;2023-04-24T11:47:12;2.25;;;0.60;;
67819;SDS011;54618;52.018;5.576;2023-04-24T11:49:38;2.25;;;0.70;;
67819;SDS011;54618;52.018;5.576;2023-04-24T11:52:04;3.05;;;0.90;;
67819;SDS011;54618;52.018;5.576;2023-04-24T11:54:31;2.95;;;0.90;;
67819;SDS011;54618;52.018;5.576;2023-04-24T11:56:56;2.03;;;0.80;;
67819;SDS011;54618;52.018;5.576;2023-04-24T11:59:22;3.05;;;0.80;;
67819;SDS011;54618;52.018;5.576;2023-04-24T12:01:48;2.25;;;0.80;;
67819;SDS011;54618;52.018;5.576;2023-04-24T12:04:15;1.23;;;0.70;;
67819;SDS011;54618;52.018;5.576;2023-04-24T12:07:01;1.65;;;0.70;;
67819;SDS011;54618;52.018;5.576;2023-04-24T12:09:28;2.38;;;0.70;;
67819;SDS011;54618;52.018;5.576;2023-04-24T12:11:54;1.92;;;0.80;;
67819;SDS011;54618;52.018;5.576;2023-04-24T12:14:23;3.33;;;0.77;;
67819;SDS011;54618;52.018;5.576;2023-04-24T12:16:50;3.13;;;0.75;;
67819;SDS011;54618;52.018;5.576;2023-04-24T12:19:22;2.13;;;0.80;;
67819;SDS011;54618;52.018;5.576;2023-04-24T12:22:01;1.58;;;0.68;;
67819;SDS011;54618;52.018;5.576;2023-04-24T12:24:28;1.13;;;0.60;;
67819;SDS011;54618;52.018;5.576;2023-04-24T12:26:55;1.65;;;0.60;;
67819;SDS011;54618;52.018;5.576;2023-04-24T12:29:21;1.77;;;0.65;;
67819;SDS011;54618;52.018;5.576;2023-04-24T12:31:47;2.83;;;0.70;;
67819;SDS011;54618;52.018;5.576;2023-04-24T12:34:17;2.20;;;0.55;;
67819;SDS011;54618;52.018;5.576;2023-04-24T12:36:43;1.63;;;0.75;;
67819;SDS011;54618;52.018;5.576;2023-04-24T12:39:14;2.28;;;0.60;;
67819;SDS011;54618;52.018;5.576;2023-04-24T12:41:56;1.88;;;0.70;;
67819;SDS011;54618;52.018;5.576;2023-04-24T12:44:28;1.25;;;0.50;;
67819;SDS011;54618;52.018;5.576;2023-04-24T12:46:59;1.88;;;0.60;;
67819;SDS011;54618;52.018;5.576;2023-04-24T12:49:25;1.95;;;0.70;;
67819;SDS011;54618;52.018;5.576;2023-04-24T12:51:51;1.92;;;0.70;;
67819;SDS011;54618;52.018;5.576;2023-04-24T12:54:16;1.08;;;0.60;;
67819;SDS011;54618;52.018;5.576;2023-04-24T12:56:42;2.15;;;0.82;;
67819;SDS011;54618;52.018;5.576;2023-04-24T12:59:08;1.83;;;0.70;;
67819;SDS011;54618;52.018;5.576;2023-04-24T13:01:34;2.75;;;0.65;;
67819;SDS011;54618;52.018;5.576;2023-04-24T13:03:59;2.70;;;0.70;;
67819;SDS011;54618;52.018;5.576;2023-04-24T13:06:25;2.35;;;0.70;;
67819;SDS011;54618;52.018;5.576;2023-04-24T13:08:51;1.23;;;0.60;;
67819;SDS011;54618;52.018;5.576;2023-04-24T13:11:17;1.42;;;0.60;;
67819;SDS011;54618;52.018;5.576;2023-04-24T13:13:43;1.23;;;0.50;;
67819;SDS011;54618;52.018;5.576;2023-04-24T13:16:08;1.50;;;0.60;;
67819;SDS011;54618;52.018;5.576;2023-04-24T13:18:35;1.40;;;0.73;;
67819;SDS011;54618;52.018;5.576;2023-04-24T13:21:01;1.75;;;0.50;;
67819;SDS011;54618;52.018;5.576;2023-04-24T13:23:26;2.60;;;0.60;;
67819;SDS011;54618;52.018;5.576;2023-04-24T13:25:53;2.35;;;0.70;;
67819;SDS011;54618;52.018;5.576;2023-04-24T13:28:22;1.35;;;0.70;;
67819;SDS011;54618;52.018;5.576;2023-04-24T13:30:48;1.35;;;0.57;;
67819;SDS011;54618;52.018;5.576;2023-04-24T13:33:14;1.80;;;0.70;;
67819;SDS011;54618;52.018;5.576;2023-04-24T13:35:39;2.13;;;0.70;;
67819;SDS011;54618;52.018;5.576;2023-04-24T13:38:05;2.25;;;0.70;;
67819;SDS011;54618;52.018;5.576;2023-04-24T13:40:31;2.53;;;0.73;;
67819;SDS011;54618;52.018;5.576;2023-04-24T13:42:57;3.28;;;0.70;;
67819;SDS011;54618;52.018;5.576;2023-04-24T13:45:23;4.53;;;0.82;;
67819;SDS011;54618;52.018;5.576;2023-04-24T13:47:49;2.38;;;0.63;;
67819;SDS011;54618;52.018;5.576;2023-04-24T13:50:15;3.08;;;0.70;;
67819;SDS011;54618;52.018;5.576;2023-04-24T13:52:41;2.05;;;0.77;;
67819;SDS011;54618;52.018;5.576;2023-04-24T13:55:06;2.45;;;0.85;;
67819;SDS011;54618;52.018;5.576;2023-04-24T13:57:32;10.45;;;0.90;;
67819;SDS011;54618;52.018;5.576;2023-04-24T13:59:58;3.05;;;0.82;;
67819;SDS011;54618;52.018;5.576;2023-04-24T14:02:26;2.53;;;1.00;;
67819;SDS011;54618;52.018;5.576;2023-04-24T14:04:52;2.70;;;0.60;;
67819;SDS011;54618;52.018;5.576;2023-04-24T14:07:18;3.13;;;0.70;;
67819;SDS011;54618;52.018;5.576;2023-04-24T14:09:43;3.83;;;0.90;;
67819;SDS011;54618;52.018;5.576;2023-04-24T14:12:09;2.95;;;1.02;;
67819;SDS011;54618;52.018;5.576;2023-04-24T14:14:34;3.75;;;1.00;;
67819;SDS011;54618;52.018;5.576;2023-04-24T14:17:00;1.95;;;0.70;;
67819;SDS011;54618;52.018;5.576;2023-04-24T14:19:25;2.92;;;0.73;;
67819;SDS011;54618;52.018;5.576;2023-04-24T14:21:51;2.58;;;0.70;;
67819;SDS011;54618;52.018;5.576;2023-04-24T14:24:17;3.42;;;1.00;;
67819;SDS011;54618;52.018;5.576;2023-04-24T14:26:42;3.47;;;0.90;;
67819;SDS011;54618;52.018;5.576;2023-04-24T14:29:08;2.83;;;0.90;;
67819;SDS011;54618;52.018;5.576;2023-04-24T14:31:34;3.17;;;0.88;;
67819;SDS011;54618;52.018;5.576;2023-04-24T14:34:00;3.35;;;0.77;;
67819;SDS011;54618;52.018;5.576;2023-04-24T14:36:25;2.65;;;0.80;;
67819;SDS011;54618;52.018;5.576;2023-04-24T14:38:51;2.58;;;0.60;;
67819;SDS011;54618;52.018;5.576;2023-04-24T14:41:16;2.80;;;0.77;;
67819;SDS011;54618;52.018;5.576;2023-04-24T14:43:42;3.35;;;0.90;;
67819;SDS011;54618;52.018;5.576;2023-04-24T14:46:07;2.97;;;0.75;;
67819;SDS011;54618;52.018;5.576;2023-04-24T14:48:33;3.22;;;0.88;;
67819;SDS011;54618;52.018;5.576;2023-04-24T14:50:58;4.20;;;0.90;;
67819;SDS011;54618;52.018;5.576;2023-04-24T14:53:24;2.42;;;0.80;;
67819;SDS011;54618;52.018;5.576;2023-04-24T14:55:49;3.55;;;0.98;;
67819;SDS011;54618;52.018;5.576;2023-04-24T14:58:15;2.65;;;0.70;;
67819;SDS011;54618;52.018;5.576;2023-04-24T15:00:40;2.85;;;0.80;;
67819;SDS011;54618;52.018;5.576;2023-04-24T15:03:06;2.80;;;0.82;;
67819;SDS011;54618;52.018;5.576;2023-04-24T15:05:32;2.42;;;0.93;;